Meteo

Meteo


Dettagli e Storico

Webcam

Webcam in aeroporto – Aggiornata ogni minuto
Osservatorio Meteorologico Cocomaro di Cona – Ferrara

NOAA IMAGE

NOAA

Windy

METAR

Aviation Digital Data Service (ADDS)

Output produced by METARs form (1046 UTC 03 December 2020)
found at http://www.aviationweather.gov/metar/data/
 
METAR text: LIPF 030955Z /////KT 8000 BKN080 04/02 Q1009
Conditions at: LIPF (FERRARA (AUT) , IT) observed 0955 UTC 03 December 2020
Temperature: 4.0°C (39°F)
Dewpoint: 2.0°C (36°F) [RH = 87%]
Pressure (altimeter): 29.79 inches Hg (1009.0 mb)
Winds: missing
Visibility: 5 miles ( 8 km)
Ceiling: 8000 feet AGL
Clouds: broken clouds at 8000 feet AGL
Weather: no significant weather observed at this time

METAR text: LIPE 031020Z 18003KT 150V230 9999 BKN040 04/02 Q1008
Conditions at: LIPE (BOLOGNA/BORGO (A, IT) observed 1020 UTC 03 December 2020
Temperature: 4.0°C (39°F)
Dewpoint: 2.0°C (36°F) [RH = 87%]
Pressure (altimeter): 29.76 inches Hg (1008.0 mb)
Winds: from the S (180 degrees) at 3 MPH (3 knots; 1.5 m/s)
Visibility: 6 or more miles (10+ km)
Ceiling: 4000 feet AGL
Clouds: broken clouds at 4000 feet AGL
Weather: no significant weather observed at this time

Forecast for: LIPE (BOLOGNA/BORGO (A, IT)
Text: TAF LIPE 030500Z 0306/0406 22006KT 8000 BKN020
Forecast period: 0600 UTC 03 December 2020 to 0600 UTC 04 December 2020
Forecast type: FROM: standard forecast or significant change
Winds: from the SW (220 degrees) at 7 MPH (6 knots; 3.1 m/s)
Visibility: 5 miles (8 km)
Ceiling: 2000 feet AGL
Clouds: broken clouds at 2000 feet AGL
Weather: no significant weather forecast for this period
Text: TEMPO 0322/0406 0800 FG
Forecast period: 2200 UTC 03 December 2020 to 0600 UTC 04 December 2020
Forecast type: TEMPORARY: The following changes expected for less than half the time period
Visibility: 0.50 miles (0.80 km)
Ceiling: unknown
Clouds: missing
Weather: FG  (fog)

METAR text: LIPX 031020Z 13003KT 100V170 3000 BR SCT003 SCT025 BKN070 03/02 Q1008
Conditions at: LIPX (VILLAFRANCA(CV/M, IT) observed 1020 UTC 03 December 2020
Temperature: 3.0°C (37°F)
Dewpoint: 2.0°C (36°F) [RH = 93%]
Pressure (altimeter): 29.76 inches Hg (1008.0 mb)
Winds: from the SE (130 degrees) at 3 MPH (3 knots; 1.5 m/s)
Visibility: 1.86 miles (2.99 km)
Ceiling: 7000 feet AGL
Clouds: scattered clouds at 300 feet AGL
scattered clouds at 2500 feet AGL
broken clouds at 7000 feet AGL
Weather: BR  (mist)

Forecast for: LIPX (VILLAFRANCA(CV/M, IT)
Text: TAF LIPX 030800Z 0309/0318 VRB05KT 8000 SCT020
Forecast period: 0900 to 1800 UTC 03 December 2020
Forecast type: FROM: standard forecast or significant change
Winds: variable direction winds at 6 MPH (5 knots; 2.6 m/s)
Visibility: 5 miles (8 km)
Ceiling: at least 12,000 feet AGL
Clouds: scattered clouds at 2000 feet AGL
Weather: no significant weather forecast for this period

METAR text: LIPZ 031020Z 04004KT 9999 FEW012 SCT016 BKN022 04/02 Q1009 NOSIG
Conditions at: LIPZ (VENEZIA/TESSERA , IT) observed 1020 UTC 03 December 2020
Temperature: 4.0°C (39°F)
Dewpoint: 2.0°C (36°F) [RH = 87%]
Pressure (altimeter): 29.79 inches Hg (1009.0 mb)
Winds: from the NE (40 degrees) at 5 MPH (4 knots; 2.1 m/s)
Visibility: 6 or more miles (10+ km)
Ceiling: 2200 feet AGL
Clouds: few clouds at 1200 feet AGL
scattered clouds at 1600 feet AGL
broken clouds at 2200 feet AGL
Weather: no significant weather observed at this time

Forecast for: LIPZ (VENEZIA/TESSERA , IT)
Text: TAF LIPZ 030500Z 0306/0412 07010KT 7000 RA BKN030
Forecast period: 0600 UTC 03 December 2020 to 1200 UTC 04 December 2020
Forecast type: FROM: standard forecast or significant change
Winds: from the ENE (70 degrees) at 12 MPH (10 knots; 5.1 m/s)
Visibility: 4 miles (7 km)
Ceiling: 3000 feet AGL
Clouds: broken clouds at 3000 feet AGL
Weather: RA  (moderate rain)
Text: BECMG 0306/0308 01006KT NSW
Forecast period: 0600 UTC 03 December 2020 to 1200 UTC 04 December 2020
Forecast type: BECOMING: Conditions expected to become as follows by 0800 UTC 03 December 2020
Winds: from the N (10 degrees) at 7 MPH (6 knots; 3.1 m/s)
Visibility: 4 miles (7 km)
Ceiling: 3000 feet AGL
Clouds: broken clouds at 3000 feet AGL
Weather: NSW  (no significant weather)
Text: TEMPO 0322/0406 1200 BCFG
Forecast period: 2200 UTC 03 December 2020 to 0600 UTC 04 December 2020
Forecast type: TEMPORARY: The following changes expected for less than half the time period
Visibility: 0.75 miles (1.21 km)
Ceiling: unknown
Clouds: missing
Weather: BCFG  (patches of fog)